createdAt,value
2023-03-31T00:03:25.398Z,13.85
2023-03-31T00:08:36.707Z,14.04
2023-03-31T00:13:42.387Z,14.26
2023-03-31T00:18:52.215Z,14.46
2023-03-31T00:24:00.412Z,14.61
2023-03-31T00:29:07.820Z,14.81
2023-03-31T00:34:13.142Z,14.99
2023-03-31T00:39:21.060Z,15.15
2023-03-31T00:44:27.435Z,15.31
2023-03-31T00:49:41.921Z,15.46
2023-03-31T00:54:51.747Z,15.62
2023-03-31T01:00:08.545Z,15.80
2023-03-31T01:05:14.142Z,15.99
2023-03-31T01:10:20.036Z,16.18
2023-03-31T01:15:26.363Z,16.38
2023-03-31T01:20:58.448Z,16.57
2023-03-31T01:26:13.190Z,16.79
2023-03-31T01:32:13.398Z,17.01
2023-03-31T01:37:50.771Z,17.25
2023-03-31T01:43:10.046Z,17.48
2023-03-31T01:48:19.517Z,17.66
2023-03-31T01:53:43.588Z,17.88
2023-03-31T01:59:16.727Z,18.13
2023-03-31T02:04:35.368Z,18.31
2023-03-31T02:09:49.660Z,18.53
2023-03-31T02:14:59.366Z,18.74
2023-03-31T02:20:13.498Z,18.95
2023-03-31T02:25:23.181Z,19.16
2023-03-31T02:30:48.143Z,19.35
2023-03-31T02:35:53.893Z,19.58
2023-03-31T02:40:59.855Z,19.71
2023-03-31T02:46:05.889Z,19.90
2023-03-31T02:51:11.365Z,19.96
2023-03-31T02:56:38.509Z,20.22
2023-03-31T03:02:08.450Z,20.46
2023-03-31T03:07:27.956Z,20.70
2023-03-31T03:12:51.065Z,20.97
2023-03-31T03:17:58.271Z,21.13
2023-03-31T03:23:03.967Z,21.37
2023-03-31T03:28:09.902Z,21.62
2023-03-31T03:33:18.474Z,21.86
2023-03-31T03:38:23.718Z,22.00
2023-03-31T03:43:28.982Z,22.25
2023-03-31T03:48:34.258Z,22.50
2023-03-31T03:53:39.455Z,22.65
2023-03-31T03:58:44.740Z,22.87
2023-03-31T04:03:50.543Z,23.15
2023-03-31T04:08:55.974Z,23.37
2023-03-31T04:14:01.199Z,23.62
2023-03-31T04:19:09.654Z,23.80
2023-03-31T04:24:24.135Z,24.07
2023-03-31T04:29:29.594Z,24.26
2023-03-31T04:34:39.112Z,24.41
2023-03-31T04:39:47.810Z,24.58
2023-03-31T04:44:53.302Z,24.65
2023-03-31T04:50:00.184Z,24.78
2023-03-31T04:55:06.855Z,24.97
2023-03-31T05:00:14.226Z,25.11
2023-03-31T05:05:20.697Z,25.25
2023-03-31T05:10:26.629Z,25.23
2023-03-31T05:15:34.573Z,25.23
2023-03-31T05:20:42.203Z,25.20
2023-03-31T05:25:51.324Z,25.24
2023-03-31T05:30:56.990Z,25.29
2023-03-31T05:36:04.557Z,25.46
2023-03-31T05:41:14.604Z,25.49
2023-03-31T05:46:21.029Z,25.60
2023-03-31T05:51:27.867Z,25.70
2023-03-31T05:56:35.242Z,25.83
2023-03-31T06:01:43.134Z,26.00
2023-03-31T06:06:51.594Z,26.10
2023-03-31T06:11:58.657Z,26.02
2023-03-31T06:17:03.912Z,25.95
2023-03-31T06:22:10.986Z,25.89
2023-03-31T06:27:17.361Z,25.70
2023-03-31T06:32:22.905Z,25.51
2023-03-31T06:37:28.708Z,25.53
2023-03-31T06:42:36.679Z,25.51
2023-03-31T06:47:42.952Z,25.48
2023-03-31T06:52:48.567Z,25.38
2023-03-31T06:57:55.330Z,25.18
2023-03-31T07:03:04.024Z,24.94
2023-03-31T07:08:09.874Z,24.89
2023-03-31T07:13:15.961Z,25.07
2023-03-31T07:18:23.201Z,25.20
2023-03-31T07:23:31.699Z,25.26
2023-03-31T07:28:38.996Z,25.24
2023-03-31T07:33:44.449Z,25.16
2023-03-31T07:38:51.510Z,25.06
2023-03-31T07:43:59.320Z,25.00
2023-03-31T07:49:05.526Z,24.91
2023-03-31T07:54:11.153Z,24.85
2023-03-31T07:59:19.244Z,24.74
2023-03-31T08:04:24.133Z,24.69
2023-03-31T08:09:31.566Z,24.54
2023-03-31T08:14:41.608Z,24.40
2023-03-31T08:19:47.102Z,24.26
2023-03-31T08:24:53.256Z,24.17
2023-03-31T08:29:58.494Z,24.16
2023-03-31T08:35:04.243Z,24.14
2023-03-31T08:40:14.526Z,24.09
2023-03-31T08:45:23.881Z,23.93
2023-03-31T08:50:41.366Z,23.84
2023-03-31T08:55:52.560Z,23.77
2023-03-31T09:01:24.726Z,23.67
2023-03-31T09:06:46.122Z,23.46
2023-03-31T09:11:58.444Z,23.31
2023-03-31T09:17:22.684Z,23.11
2023-03-31T09:22:41.950Z,22.92
2023-03-31T09:27:48.952Z,22.72
2023-03-31T09:33:21.367Z,22.57
2023-03-31T09:38:30.893Z,22.45
2023-03-31T09:43:42.290Z,22.34
2023-03-31T09:49:08.039Z,22.19
2023-03-31T09:54:18.242Z,22.06
2023-03-31T09:59:37.759Z,21.91
2023-03-31T10:04:48.111Z,21.74
2023-03-31T10:09:55.974Z,21.57
2023-03-31T10:15:27.963Z,21.40
2023-03-31T10:20:39.886Z,21.29
2023-03-31T10:25:48.477Z,21.17
2023-03-31T10:31:02.599Z,21.09
2023-03-31T10:36:28.377Z,20.96
2023-03-31T10:41:34.715Z,20.88
2023-03-31T10:46:45.275Z,20.76
2023-03-31T10:52:00.203Z,20.70
2023-03-31T10:57:07.484Z,20.63
2023-03-31T11:02:31.108Z,20.55
2023-03-31T11:08:23.987Z,20.42
2023-03-31T11:13:54.983Z,20.28
2023-03-31T11:19:13.725Z,20.18
2023-03-31T11:24:45.046Z,20.12
2023-03-31T11:30:30.626Z,20.03
2023-03-31T11:36:05.715Z,19.96
2023-03-31T11:41:33.240Z,19.83
2023-03-31T11:46:57.690Z,19.74
2023-03-31T11:52:08.533Z,19.65
2023-03-31T11:57:32.891Z,19.55
2023-03-31T12:02:51.327Z,19.49
2023-03-31T12:08:14.168Z,19.47
2023-03-31T12:13:19.380Z,19.41
2023-03-31T12:18:28.301Z,19.35
2023-03-31T12:23:40.440Z,19.30
2023-03-31T12:28:48.310Z,19.25
2023-03-31T12:33:58.414Z,19.22
2023-03-31T12:39:30.720Z,19.16
2023-03-31T12:44:46.229Z,19.10
2023-03-31T12:50:12.854Z,19.04
2023-03-31T12:55:40.324Z,18.98
2023-03-31T13:01:12.752Z,18.91
2023-03-31T13:06:31.125Z,18.84
2023-03-31T13:11:39.969Z,18.76
2023-03-31T13:16:47.543Z,18.66
2023-03-31T13:21:57.691Z,18.59
2023-03-31T13:27:35.724Z,18.54
2023-03-31T13:32:43.248Z,18.46
2023-03-31T13:38:44.988Z,18.39
2023-03-31T13:43:57.347Z,18.33
2023-03-31T13:49:23.744Z,18.28
2023-03-31T13:54:47.221Z,18.20
2023-03-31T14:00:13.726Z,18.14
2023-03-31T14:05:41.027Z,18.09
2023-03-31T14:10:46.737Z,18.04
2023-03-31T14:16:00.944Z,17.97
2023-03-31T14:21:30.306Z,17.89
2023-03-31T14:27:05.711Z,17.84
2023-03-31T14:32:33.545Z,17.74
2023-03-31T14:37:39.187Z,17.68
2023-03-31T14:42:51.132Z,17.62
2023-03-31T14:48:05.257Z,17.53
2023-03-31T14:53:17.791Z,17.42
2023-03-31T14:58:36.102Z,17.34
2023-03-31T15:03:46.110Z,17.27
2023-03-31T15:09:05.916Z,17.18
2023-03-31T15:14:14.922Z,17.08
2023-03-31T15:19:26.125Z,17.01
2023-03-31T15:24:34.779Z,16.95
2023-03-31T15:29:47.477Z,16.90
2023-03-31T15:34:54.701Z,16.86
2023-03-31T15:40:03.225Z,16.83
2023-03-31T15:45:18.079Z,16.80
2023-03-31T15:50:27.654Z,16.75
2023-03-31T15:55:46.245Z,16.74
2023-03-31T16:01:03.485Z,16.65
2023-03-31T16:06:41.278Z,16.58
2023-03-31T16:11:55.818Z,16.51
2023-03-31T16:17:16.251Z,16.44
2023-03-31T16:22:26.693Z,16.40
2023-03-31T16:27:32.735Z,16.33
2023-03-31T16:33:02.615Z,16.24
2023-03-31T16:38:10.465Z,16.12
2023-03-31T16:43:16.999Z,16.06
2023-03-31T16:48:25.487Z,15.99
2023-03-31T16:53:39.085Z,15.86
2023-03-31T16:58:45.281Z,15.74
2023-03-31T17:03:51.143Z,15.64
2023-03-31T17:08:56.958Z,15.60
2023-03-31T17:14:02.464Z,15.52
2023-03-31T17:19:09.046Z,15.46
2023-03-31T17:24:13.624Z,15.45
2023-03-31T17:29:19.064Z,15.40
2023-03-31T17:34:24.387Z,15.36
2023-03-31T17:39:29.724Z,15.31
2023-03-31T17:44:37.865Z,15.27
2023-03-31T17:49:43.259Z,15.27
2023-03-31T17:54:50.295Z,15.29
2023-03-31T17:59:56.184Z,15.27
2023-03-31T18:05:01.935Z,15.24
2023-03-31T18:10:08.067Z,15.23
2023-03-31T18:15:12.993Z,15.22
2023-03-31T18:20:18.555Z,15.19
2023-03-31T18:25:24.054Z,15.10
2023-03-31T18:30:29.480Z,15.04
2023-03-31T18:35:35.093Z,14.98
2023-03-31T18:40:40.869Z,14.92
2023-03-31T18:45:51.554Z,14.84
2023-03-31T18:50:56.761Z,14.77
2023-03-31T18:56:02.576Z,14.72
2023-03-31T19:01:09.613Z,14.67
2023-03-31T19:06:17.588Z,14.57
2023-03-31T19:11:23.245Z,14.51
2023-03-31T19:16:29.777Z,14.39
2023-03-31T19:21:38.149Z,14.32
2023-03-31T19:26:44.461Z,14.22
2023-03-31T19:31:49.947Z,14.15
2023-03-31T19:36:55.491Z,14.04
2023-03-31T19:42:01.062Z,13.94
2023-03-31T19:47:06.887Z,13.86
2023-03-31T19:52:12.259Z,13.82
2023-03-31T19:57:18.717Z,13.74
2023-03-31T20:02:24.926Z,13.69
2023-03-31T20:07:31.386Z,13.64
2023-03-31T20:12:37.901Z,13.61
2023-03-31T20:17:43.096Z,13.60
2023-03-31T20:22:48.557Z,13.57
2023-03-31T20:27:53.887Z,13.58
2023-03-31T20:32:59.193Z,13.52
2023-03-31T20:38:04.467Z,13.50
2023-03-31T20:43:09.684Z,13.47
2023-03-31T20:48:14.838Z,13.41
2023-03-31T20:53:20.235Z,13.36
2023-03-31T20:58:25.465Z,13.29
2023-03-31T21:03:30.792Z,13.22
2023-03-31T21:08:37.068Z,13.17
2023-03-31T21:13:42.415Z,13.17
2023-03-31T21:18:47.559Z,13.12
2023-03-31T21:23:53.633Z,13.06
2023-03-31T21:28:59.841Z,12.96
2023-03-31T21:34:05.834Z,12.91
2023-03-31T21:39:11.306Z,12.83
2023-03-31T21:44:17.642Z,12.78
2023-03-31T21:49:23.186Z,12.73
2023-03-31T21:54:28.484Z,12.67
2023-03-31T21:59:33.846Z,12.63
2023-03-31T22:04:39.316Z,12.57
2023-03-31T22:09:44.888Z,12.49
2023-03-31T22:14:50.212Z,12.46
2023-03-31T22:19:56.381Z,12.42
2023-03-31T22:25:01.931Z,12.43
2023-03-31T22:30:08.216Z,12.41
2023-03-31T22:35:13.451Z,12.49
2023-03-31T22:40:19.207Z,12.55
2023-03-31T22:45:24.410Z,12.60
2023-03-31T22:50:29.517Z,12.64
2023-03-31T22:55:35.622Z,12.78
2023-03-31T23:00:41.161Z,12.89
2023-03-31T23:05:47.113Z,13.02
2023-03-31T23:11:00.644Z,13.15
2023-03-31T23:16:12.164Z,13.29
2023-03-31T23:21:20.758Z,13.40
2023-03-31T23:26:29.436Z,13.53
2023-03-31T23:31:36.395Z,13.68
2023-03-31T23:36:42.103Z,13.81
2023-03-31T23:41:47.775Z,13.98
2023-03-31T23:46:53.063Z,14.15
2023-03-31T23:51:58.975Z,14.27
2023-03-31T23:57:04.282Z,14.42
